Time;durP1;ratioP1;P1;durP2;ratioP2;P2;SDS_P1;SDS_P2;PMS_P1;PMS_P2;Temp;Humidity;BMP_temperature;BMP_pressure;BME280_temperature;BME280_humidity;BME280_pressure;Samples;Min_cycle;Max_cycle;Signal;HPM_P1;HPM_P2
2022/06/06 03:11:47;;;;;;;24.48;7.60;;;;;;;20.28;100.00;100373.78;5875534;23;20074;-90
2022/06/06 04:26:30;;;;;;;36.08;8.02;;;;;;;20.58;100.00;100398.81;5162218;23;20050;-90
2022/06/06 04:29:56;;;;;;;23.70;7.28;;;;;;;20.55;100.00;100400.06;5301383;22;20043;-89
2022/06/06 04:33:22;;;;;;;24.98;7.82;;;;;;;20.59;100.00;100393.16;5014930;28;20034;-91
2022/06/06 04:42:10;;;;;;;30.05;8.55;;;;;;;20.64;100.00;100389.81;5111119;23;20058;-90
2022/06/06 04:44:45;;;;;;;23.52;7.60;;;;;;;20.68;100.00;100391.00;4969565;29;20107;-88
2022/06/06 04:50:21;;;;;;;26.90;7.95;;;;;;;20.73;100.00;100399.19;4882227;23;20034;-90
2022/06/06 04:53:14;;;;;;;25.15;8.18;;;;;;;20.89;100.00;100403.88;5223714;23;20097;-93
2022/06/06 04:57:02;;;;;;;25.02;7.97;;;;;;;21.07;100.00;100400.28;5359926;23;20172;-91
2022/06/06 04:59:41;;;;;;;28.50;8.60;;;;;;;21.32;100.00;100398.19;4988908;28;20043;-88
2022/06/06 05:02:11;;;;;;;28.20;8.23;;;;;;;21.41;100.00;100409.47;4991997;28;20030;-88
2022/06/06 05:08:05;;;;;;;30.52;9.57;;;;;;;21.52;100.00;100414.00;5126113;23;20034;-89
2022/06/06 05:11:19;;;;;;;30.25;9.07;;;;;;;21.51;100.00;100412.41;5017340;28;20060;-90
2022/06/06 05:14:39;;;;;;;29.95;9.48;;;;;;;21.58;100.00;100424.69;4978177;28;20091;-92
2022/06/06 05:17:45;;;;;;;23.48;8.77;;;;;;;21.74;100.00;100416.94;4974907;28;20050;-89
2022/06/06 05:20:38;;;;;;;30.25;9.60;;;;;;;21.80;100.00;100416.81;4960727;29;20035;-87
2022/06/06 05:31:09;;;;;;;34.67;10.65;;;;;;;22.28;100.00;100412.91;4981542;28;20050;-90
2022/06/06 05:33:48;;;;;;;45.65;11.88;;;;;;;22.34;100.00;100409.28;5137249;22;20060;-94
2022/06/06 05:42:42;;;;;;;25.13;10.75;;;;;;;22.65;100.00;100404.16;5032600;28;20050;-92
2022/06/06 05:45:46;;;;;;;35.65;10.60;;;;;;;22.88;100.00;100405.94;4974957;29;20090;-91
2022/06/06 05:48:40;;;;;;;40.03;10.77;;;;;;;23.08;100.00;100408.13;4973161;29;20106;-93
2022/06/06 05:51:59;;;;;;;36.38;10.48;;;;;;;23.52;100.00;100420.75;5044706;28;20050;-92
2022/06/06 05:54:27;;;;;;;;;;;;;;;23.65;100.00;100423.09;4961161;28;20054;-93
2022/06/06 05:57:32;;;;;;;31.75;10.23;;;;;;;23.87;100.00;100420.38;5036424;28;19941;-94
2022/06/06 06:00:19;;;;;;;35.65;9.35;;;;;;;23.94;100.00;100423.72;5017909;28;20041;-92
2022/06/06 06:03:47;;;;;;;24.42;8.82;;;;;;;24.20;100.00;100441.13;5035036;28;20038;-92
2022/06/06 06:06:56;;;;;;;25.38;9.85;;;;;;;24.32;100.00;100441.00;5033787;23;20060;-91
2022/06/06 06:09:44;;;;;;;32.78;8.93;;;;;;;24.65;100.00;100440.81;4999174;28;20047;-94
2022/06/06 06:12:59;;;;;;;28.63;8.32;;;;;;;24.95;100.00;100443.81;5015645;28;20101;-90
2022/06/06 06:18:36;;;;;;;28.35;9.10;;;;;;;25.24;100.00;100457.06;4308072;23;20069;-93
2022/06/06 06:21:22;;;;;;;27.58;9.02;;;;;;;25.97;96.62;100459.72;4967000;29;20055;-91
2022/06/06 06:23:58;;;;;;;25.48;7.93;;;;;;;26.37;92.61;100458.28;4968339;29;20036;-90
2022/06/06 06:26:38;;;;;;;24.35;8.65;;;;;;;26.32;91.69;100464.50;4950854;29;20396;-90
2022/06/06 06:29:15;;;;;;;20.33;8.10;;;;;;;27.21;86.65;100473.09;4926415;29;20036;-89
2022/06/06 06:35:53;;;;;;;23.25;7.15;;;;;;;26.82;87.12;100474.69;4933203;29;20044;-94
2022/06/06 06:38:48;;;;;;;24.80;7.75;;;;;;;26.79;87.17;100471.66;4965069;28;20058;-91
2022/06/06 06:42:06;;;;;;;28.67;6.80;;;;;;;26.53;87.44;100470.81;5013526;28;20026;-91
2022/06/06 06:45:18;;;;;;;;;;;;;;;;;;;;;
2022/06/06 06:49:23;;;;;;;28.60;7.25;;;;;;;27.01;84.60;100478.53;5642628;23;20030;-92
2022/06/06 06:52:28;;;;;;;23.67;7.50;;;;;;;27.08;85.30;100484.50;5011798;28;20341;-93
2022/06/06 06:58:31;;;;;;;23.45;6.32;;;;;;;27.39;82.63;100487.22;5031941;28;20053;-92
2022/06/06 07:08:32;;;;;;;30.75;7.55;;;;;;;27.15;84.01;100487.78;4958504;29;20051;-93
2022/06/06 07:08:49;;;;;;;23.48;7.55;;;;;;;27.15;83.93;100501.38;4967525;29;20092;-87
2022/06/06 07:11:45;;;;;;;26.27;8.18;;;;;;;26.87;85.00;100501.91;4969413;29;20104;-89
2022/06/06 07:15:07;;;;;;;25.03;7.20;;;;;;;27.10;83.52;100506.84;4967217;28;20083;-88
2022/06/06 07:17:53;;;;;;;30.10;7.85;;;;;;;27.61;81.06;100506.81;4952537;28;20059;-88
2022/06/06 07:20:21;;;;;;;24.92;7.50;;;;;;;27.81;78.36;100508.72;4929838;29;20036;-90
2022/06/06 07:23:05;;;;;;;24.83;6.97;;;;;;;28.30;76.63;100519.75;4961251;28;20493;-86
2022/06/06 07:25:48;;;;;;;21.98;5.80;;;;;;;28.32;76.86;100520.28;4948564;29;20063;-86
2022/06/06 07:28:20;;;;;;;23.35;6.97;;;;;;;28.44;75.68;100518.06;4968438;28;20070;-87
2022/06/06 07:31:45;;;;;;;21.48;7.38;;;;;;;27.90;78.51;100510.59;4947305;28;20047;-87
2022/06/06 07:34:56;;;;;;;22.30;8.05;;;;;;;27.03;81.34;100514.44;4911541;29;20052;-86
2022/06/06 07:37:50;;;;;;;20.33;7.38;;;;;;;27.59;78.26;100519.91;4922567;29;20051;-86
2022/06/06 07:41:12;;;;;;;30.85;7.78;;;;;;;27.70;78.14;100524.25;4971489;29;20042;-87
2022/06/06 07:44:12;;;;;;;25.02;7.25;;;;;;;28.21;74.50;100525.78;4896410;29;20052;-88
2022/06/06 07:46:44;;;;;;;29.80;8.55;;;;;;;27.78;77.91;100517.41;4895168;29;20053;-89
2022/06/06 07:49:21;;;;;;;25.88;7.18;;;;;;;28.68;74.94;100521.78;4902617;29;20207;-88
2022/06/06 07:52:14;;;;;;;22.58;7.15;;;;;;;28.87;73.54;100521.97;4893673;29;20498;-88
2022/06/06 07:55:01;;;;;;;21.63;7.60;;;;;;;28.34;76.26;100529.03;5020444;28;20041;-89
2022/06/06 07:57:47;;;;;;;26.63;8.75;;;;;;;28.30;77.40;100530.66;5013621;28;20030;-90
2022/06/06 08:00:21;;;;;;;27.15;8.18;;;;;;;28.54;75.13;100528.91;5012732;28;20042;-90
2022/06/06 08:03:39;;;;;;;21.70;9.55;;;;;;;27.91;78.13;100525.84;5032406;28;20062;-88
2022/06/06 08:06:33;;;;;;;22.73;8.10;;;;;;;28.37;78.10;100534.72;5026888;28;21165;-89
2022/06/06 08:09:22;;;;;;;30.38;8.60;;;;;;;28.33;76.75;100527.38;5019118;28;20038;-90
2022/06/06 08:12:00;;;;;;;30.45;10.10;;;;;;;27.74;78.88;100523.41;5021842;28;20018;-91
2022/06/06 08:14:54;;;;;;;27.90;9.52;;;;;;;28.00;78.56;100526.09;5021098;28;20032;-90
2022/06/06 08:20:46;;;;;;;26.20;8.35;;;;;;;28.78;73.85;100526.34;4904609;26;20095;-91
2022/06/06 08:29:24;;;;;;;30.38;8.77;;;;;;;29.01;71.60;100537.41;5807850;23;20094;-91
2022/06/06 08:34:34;;;;;;;24.27;7.75;;;;;;;28.97;72.35;100525.41;5046371;23;20114;-90
2022/06/06 08:37:58;;;;;;;45.25;15.52;;;;;;;28.91;72.67;100523.81;5010270;28;20045;-93
2022/06/06 08:40:44;;;;;;;33.92;9.30;;;;;;;28.76;73.27;100523.09;5005363;28;20045;-90
2022/06/06 08:43:24;;;;;;;29.45;9.68;;;;;;;28.63;74.58;100514.44;4996509;28;20089;-90
2022/06/06 08:46:33;;;;;;;26.77;9.85;;;;;;;28.71;73.76;100524.75;5005608;28;20137;-92
2022/06/06 08:52:28;;;;;;;27.83;7.63;;;;;;;29.06;71.83;100510.09;4969561;28;20089;-91
2022/06/06 08:55:10;;;;;;;25.45;7.72;;;;;;;29.20;71.07;100505.59;4996226;28;20072;-89
2022/06/06 08:57:54;;;;;;;;;;;;;;;28.75;72.31;100511.38;4979495;28;20387;-92
2022/06/06 09:00:55;;;;;;;32.42;7.70;;;;;;;28.74;71.67;100499.63;4997792;28;20056;-91
2022/06/06 09:03:35;;;;;;;30.00;8.38;;;;;;;29.01;72.26;100498.38;4985420;28;20038;-89
2022/06/06 09:15:28;;;;;;;25.95;7.20;;;;;;;29.82;69.51;100476.63;4943044;26;20034;-92
2022/06/06 09:37:19;;;;;;;36.97;10.43;;;;;;;28.62;73.49;100482.78;3422105;23;20065;-89
2022/06/06 09:40:13;;;;;;;33.15;9.65;;;;;;;28.12;74.61;100483.84;5016182;28;20065;-89
2022/06/06 09:43:18;;;;;;;26.00;9.15;;;;;;;27.75;76.26;100475.22;5011693;28;20081;-93
2022/06/06 09:46:21;;;;;;;29.85;9.27;;;;;;;27.81;76.17;100485.00;5011076;28;20031;-93
2022/06/06 09:49:11;;;;;;;26.23;8.07;;;;;;;28.50;74.53;100481.50;5016137;28;20040;-91
2022/06/06 09:52:12;;;;;;;28.88;7.30;;;;;;;28.77;72.60;100490.06;5025238;28;20049;-89
2022/06/06 10:02:04;;;;;;;23.95;7.85;;;;;;;27.66;76.21;100476.88;5026794;28;20101;-92
2022/06/06 10:05:34;;;;;;;24.60;7.85;;;;;;;28.01;75.17;100479.50;5238457;23;20034;-90
2022/06/06 10:08:21;;;;;;;;;;;;;;;28.21;74.84;100465.81;4973855;28;20059;-92
2022/06/06 10:10:59;;;;;;;37.88;8.85;;;;;;;28.50;73.44;100467.88;5004603;28;20347;-92
2022/06/06 10:13:48;;;;;;;24.63;7.60;;;;;;;28.35;73.06;100474.22;4992682;28;20175;-91
2022/06/06 10:16:58;;;;;;;28.15;9.35;;;;;;;28.17;75.56;100467.47;5012225;28;20034;-92
2022/06/06 10:20:11;;;;;;;32.03;8.60;;;;;;;29.09;71.83;100460.38;4994369;28;20053;-90
2022/06/06 10:26:48;;;;;;;37.72;8.13;;;;;;;28.71;71.20;100455.75;4999857;28;20042;-88
2022/06/06 10:33:02;;;;;;;22.02;7.18;;;;;;;28.42;73.04;100458.34;5002481;28;20056;-88
2022/06/06 10:36:14;;;;;;;25.25;7.53;;;;;;;28.51;71.54;100455.84;5017113;28;20050;-89
2022/06/06 10:42:36;;;;;;;27.08;8.07;;;;;;;27.77;75.89;100445.81;5012819;22;20077;-88
2022/06/06 10:45:23;;;;;;;26.48;8.50;;;;;;;27.84;75.96;100440.84;4997166;28;20458;-87
2022/06/06 10:48:15;;;;;;;26.98;7.95;;;;;;;27.99;76.84;100446.28;4968656;28;20103;-88
2022/06/06 10:53:56;;;;;;;31.45;7.53;;;;;;;29.35;67.82;100449.25;4982452;28;20043;-88
2022/06/06 10:56:28;;;;;;;28.95;7.28;;;;;;;29.60;66.58;100451.72;4985992;28;20043;-91
2022/06/06 10:59:24;;;;;;;18.73;6.18;;;;;;;29.75;65.33;100448.84;5004714;28;20035;-93
2022/06/06 11:02:22;;;;;;;27.00;7.60;;;;;;;30.40;65.51;100438.19;5006348;28;20018;-91
2022/06/06 11:05:06;;;;;;;29.05;7.15;;;;;;;30.76;62.45;100447.50;5009784;28;20046;-91
2022/06/06 11:08:23;;;;;;;24.98;7.18;;;;;;;29.82;64.90;100443.84;5010742;28;20030;-90
2022/06/06 11:11:39;;;;;;;30.88;7.50;;;;;;;29.88;65.30;100439.97;5015461;28;20041;-91
2022/06/06 11:14:46;;;;;;;;;;;;;;;28.88;68.53;100428.88;5010089;28;20037;-93
2022/06/06 11:18:00;;;;;;;27.23;6.53;;;;;;;29.43;68.25;100426.78;5010671;28;19944;-91
2022/06/06 11:21:02;;;;;;;22.45;5.90;;;;;;;29.20;67.03;100429.16;5006890;28;20050;-92
2022/06/06 11:23:45;;;;;;;20.20;5.90;;;;;;;29.47;66.21;100430.56;5000459;28;20057;-89
2022/06/06 11:26:49;;;;;;;25.15;6.25;;;;;;;29.38;65.75;100422.19;5005368;28;20559;-91
2022/06/06 11:29:21;;;;;;;34.17;6.05;;;;;;;29.38;66.40;100419.47;4995617;28;20106;-90
2022/06/06 11:32:15;;;;;;;24.10;5.22;;;;;;;29.57;65.71;100420.34;4992867;28;20494;-90
2022/06/06 11:35:16;;;;;;;27.77;7.22;;;;;;;29.49;67.47;100417.44;4983635;28;20077;-93
2022/06/06 11:38:04;;;;;;;26.10;6.25;;;;;;;29.41;67.85;100412.59;4998647;28;20070;-90
2022/06/06 11:40:58;;;;;;;22.23;6.25;;;;;;;29.07;69.59;100413.44;4999050;28;20034;-92
2022/06/06 11:43:58;;;;;;;27.15;7.07;;;;;;;28.70;70.29;100405.03;4994667;28;20080;-92
2022/06/06 11:47:04;;;;;;;39.03;7.20;;;;;;;28.46;69.80;100415.00;4997504;28;20514;-89
2022/06/06 11:49:50;;;;;;;24.98;6.38;;;;;;;28.50;71.13;100411.41;4956252;28;20492;-88
2022/06/06 11:52:32;;;;;;;31.77;7.32;;;;;;;28.60;71.14;100405.09;4997078;28;20225;-88
2022/06/06 11:55:17;;;;;;;30.73;6.78;;;;;;;28.78;70.88;100396.22;4998941;28;20038;-89
2022/06/06 11:58:01;;;;;;;30.13;7.28;;;;;;;28.74;70.68;100395.16;4996513;28;20043;-90
2022/06/06 12:06:46;;;;;;;27.50;6.50;;;;;;;28.39;71.31;100381.75;5167813;23;20054;-91
2022/06/06 12:50:32;;;;;;;31.65;6.88;;;;;;;27.91;73.25;100347.94;5034924;28;20030;-91
2022/06/06 12:56:23;;;;;;;32.03;9.10;;;;;;;27.95;73.48;100332.66;4274800;26;20045;-90
2022/06/06 13:02:17;;;;;;;23.33;6.55;;;;;;;27.94;73.71;100331.06;4085840;26;20027;-91
2022/06/06 13:05:24;;;;;;;25.27;6.93;;;;;;;27.92;74.32;100323.16;4995263;23;20047;-89
2022/06/06 13:08:08;;;;;;;27.52;6.38;;;;;;;27.84;74.44;100329.19;5034912;28;20073;-91
2022/06/06 13:10:52;;;;;;;24.08;5.60;;;;;;;27.83;74.36;100341.19;5036881;28;20037;-90
2022/06/06 13:13:44;;;;;;;18.65;5.68;;;;;;;27.84;74.47;100331.91;5037302;28;20364;-90
2022/06/06 13:16:54;;;;;;;24.88;5.97;;;;;;;27.96;73.52;100334.31;5024556;28;20042;-90
2022/06/06 13:20:08;;;;;;;20.15;5.50;;;;;;;27.92;74.14;100331.31;5018051;28;20112;-89
2022/06/06 13:23:26;;;;;;;29.33;5.93;;;;;;;27.87;75.61;100327.81;5017298;28;20137;-91
2022/06/06 13:27:38;;;;;;;22.73;5.38;;;;;;;27.79;75.99;100323.78;5151224;23;20053;-92
2022/06/06 13:30:28;;;;;;;23.88;5.70;;;;;;;27.64;76.89;100332.81;5021213;28;20052;-93
2022/06/06 13:33:57;;;;;;;27.98;6.00;;;;;;;27.64;77.46;100334.75;5040785;28;20038;-92
2022/06/06 13:36:49;;;;;;;29.55;5.53;;;;;;;27.63;78.20;100314.88;5039672;28;20030;-92
2022/06/06 13:40:12;;;;;;;21.63;5.75;;;;;;;27.72;76.29;100324.06;5038971;28;20040;-93
2022/06/06 13:43:01;;;;;;;22.40;6.03;;;;;;;27.65;75.86;100329.00;5038278;28;20038;-90
2022/06/06 13:48:43;;;;;;;23.45;6.18;;;;;;;27.44;77.43;100299.44;4566565;26;20038;-90
2022/06/06 13:51:35;;;;;;;22.63;5.53;;;;;;;27.38;76.72;100305.94;4991384;28;20030;-90
2022/06/06 13:54:29;;;;;;;23.27;5.60;;;;;;;27.38;76.45;100317.66;5015423;28;20130;-90
2022/06/06 13:57:25;;;;;;;19.20;5.15;;;;;;;27.45;76.39;100317.38;5046961;23;20045;-93
2022/06/06 14:00:19;;;;;;;17.50;5.28;;;;;;;27.46;75.85;100302.69;5002714;28;20046;-90
2022/06/06 14:02:57;;;;;;;18.13;5.75;;;;;;;27.40;76.94;100311.94;5008479;28;20057;-91
2022/06/06 14:08:11;;;;;;;19.00;6.00;;;;;;;27.57;75.19;100298.84;5010316;28;20061;-92
2022/06/06 14:10:52;;;;;;;22.15;5.35;;;;;;;27.45;74.85;100301.03;5011262;28;20027;-87
2022/06/06 14:13:48;;;;;;;25.05;5.63;;;;;;;27.58;75.29;100292.28;4999408;28;20106;-87
2022/06/06 14:16:26;;;;;;;21.08;4.40;;;;;;;27.55;73.98;100301.81;4997650;28;20053;-89
2022/06/06 14:19:05;;;;;;;19.27;4.95;;;;;;;27.51;74.46;100302.69;5006446;28;20034;-90
2022/06/06 14:21:36;;;;;;;22.67;5.47;;;;;;;27.46;74.82;100302.69;5001194;28;20084;-89
2022/06/06 14:24:22;;;;;;;27.77;5.88;;;;;;;27.44;74.65;100294.00;5001666;28;20078;-90
2022/06/06 14:27:02;;;;;;;22.42;5.40;;;;;;;27.35;75.14;100290.16;5001187;28;20023;-88
2022/06/06 14:29:42;;;;;;;18.85;5.60;;;;;;;27.34;75.68;100294.81;4999702;28;20023;-90
2022/06/06 14:32:32;;;;;;;22.67;5.40;;;;;;;27.38;75.70;100298.59;4999993;28;20062;-89
2022/06/06 14:41:13;;;;;;;20.33;5.82;;;;;;;27.59;76.07;100302.09;4945952;26;19984;-90
2022/06/06 14:44:09;;;;;;;23.50;5.57;;;;;;;27.59;76.70;100296.63;4977883;28;20073;-91
2022/06/06 14:47:16;;;;;;;23.42;5.32;;;;;;;27.54;76.14;100283.06;4997847;28;20039;-90
2022/06/06 14:50:45;;;;;;;19.98;4.82;;;;;;;27.68;77.14;100281.34;4989348;28;20039;-91
2022/06/06 14:52:38;;;;;;;18.98;4.82;;;;;;;27.76;75.90;100293.56;5022356;23;20109;-88
2022/06/06 14:55:08;;;;;;;;;;;;;;;27.78;75.25;100292.19;5008879;28;20042;-92
2022/06/06 14:57:34;;;;;;;24.23;5.38;;;;;;;27.85;75.20;100295.41;5025985;28;19917;-90
2022/06/06 15:00:04;;;;;;;30.00;5.57;;;;;;;27.74;75.38;100291.13;5022951;28;20404;-89
2022/06/06 15:02:30;;;;;;;19.55;5.00;;;;;;;27.81;73.05;100291.59;5026705;28;20037;-89
2022/06/06 15:05:21;;;;;;;25.58;5.13;;;;;;;28.03;72.17;100274.88;5008030;28;20057;-91
2022/06/06 15:08:02;;;;;;;31.60;4.90;;;;;;;27.90;70.97;100265.44;5024235;28;20033;-91
2022/06/06 15:10:59;;;;;;;24.23;5.03;;;;;;;27.95;72.35;100262.66;4990507;28;20042;-91
2022/06/06 15:13:25;;;;;;;23.80;4.85;;;;;;;28.17;70.39;100271.25;5027577;28;20042;-90
2022/06/06 15:15:53;;;;;;;28.75;5.00;;;;;;;28.19;70.76;100263.59;5012891;28;20393;-88
2022/06/06 15:18:28;;;;;;;20.88;4.47;;;;;;;28.23;69.50;100261.94;5009662;28;20034;-89
2022/06/06 15:20:56;;;;;;;27.13;5.40;;;;;;;28.35;68.97;100264.28;5009454;28;20045;-88
2022/06/06 15:23:27;;;;;;;25.02;5.90;;;;;;;28.33;70.04;100258.31;5010885;28;20042;-89
2022/06/06 15:26:15;;;;;;;26.75;5.35;;;;;;;28.34;70.67;100248.25;5022699;28;20443;-87
2022/06/06 15:28:53;;;;;;;22.63;5.72;;;;;;;28.28;69.80;100246.63;5019846;28;20030;-91
2022/06/06 15:32:04;;;;;;;26.52;7.03;;;;;;;28.27;69.83;100251.28;5020283;28;20039;-91
2022/06/06 15:34:59;;;;;;;28.00;5.40;;;;;;;28.48;68.73;100250.00;5032477;28;20487;-91
2022/06/06 15:38:01;;;;;;;22.10;5.15;;;;;;;28.46;68.30;100246.75;5038813;28;20087;-90
2022/06/06 15:40:38;;;;;;;23.77;4.68;;;;;;;28.30;68.65;100237.09;5026591;28;20061;-90
2022/06/06 15:46:39;;;;;;;26.80;5.10;;;;;;;28.16;69.50;100238.84;2302141;23;20137;-93
2022/06/06 15:49:53;;;;;;;17.20;4.80;;;;;;;28.27;69.15;100234.94;5019472;28;20053;-88
2022/06/06 15:52:53;;;;;;;34.22;6.00;;;;;;;28.36;69.02;100232.41;5002133;28;20030;-91
2022/06/06 15:55:34;;;;;;;16.45;4.55;;;;;;;28.31;69.02;100226.97;4999166;28;20101;-87
2022/06/06 15:58:06;;;;;;;22.40;5.10;;;;;;;28.28;69.38;100224.81;4998592;28;20030;-91
2022/06/06 16:00:48;;;;;;;28.60;5.20;;;;;;;28.24;69.39;100224.56;5018427;28;20030;-91
2022/06/06 16:03:34;;;;;;;22.50;5.22;;;;;;;28.34;69.09;100227.22;5000614;28;20053;-89
2022/06/06 16:06:01;;;;;;;17.42;5.28;;;;;;;28.39;69.86;100224.47;5030469;28;20046;-88
2022/06/06 16:08:49;;;;;;;27.88;5.88;;;;;;;28.35;69.54;100217.13;5001061;28;20034;-88
2022/06/06 16:11:34;;;;;;;15.98;4.53;;;;;;;28.34;69.28;100210.06;5013536;28;20042;-87
2022/06/06 16:14:16;;;;;;;22.38;4.97;;;;;;;28.33;68.54;100211.16;5011860;28;20073;-91
2022/06/06 16:16:54;;;;;;;30.40;5.18;;;;;;;28.27;69.60;100209.59;5018824;28;20053;-89
2022/06/06 16:19:50;;;;;;;14.85;4.63;;;;;;;28.38;69.50;100205.66;5013882;28;20041;-88
2022/06/06 16:22:39;;;;;;;19.50;5.25;;;;;;;28.50;68.06;100206.91;5026359;28;20505;-89
2022/06/06 16:25:17;;;;;;;16.73;4.85;;;;;;;28.59;66.29;100212.53;5024656;28;20045;-89
2022/06/06 16:27:55;;;;;;;17.48;4.68;;;;;;;28.47;67.54;100207.47;5015826;28;20026;-88
2022/06/06 16:30:31;;;;;;;25.25;5.20;;;;;;;28.60;67.56;100204.06;5008758;28;20066;-88
2022/06/06 16:32:56;;;;;;;28.10;6.03;;;;;;;28.54;67.16;100198.94;4999082;28;20043;-90
2022/06/06 16:35:25;;;;;;;21.35;4.78;;;;;;;28.50;67.35;100200.66;5005575;28;20034;-89
2022/06/06 16:38:09;;;;;;;19.17;4.22;;;;;;;28.44;68.18;100207.25;4995978;28;20014;-88
2022/06/06 16:40:43;;;;;;;27.40;4.60;;;;;;;28.33;68.69;100194.81;4993864;28;20041;-89
2022/06/06 16:49:46;;;;;;;22.58;4.72;;;;;;;28.31;70.63;100194.25;4999494;28;20038;-90
2022/06/06 16:52:49;;;;;;;14.25;4.13;;;;;;;28.52;68.84;100195.72;4997417;28;20034;-87
2022/06/06 16:55:33;;;;;;;16.05;4.97;;;;;;;28.43;67.40;100186.53;4998520;28;20488;-88
2022/06/06 16:58:35;;;;;;;22.15;4.40;;;;;;;28.43;68.70;100187.34;4996867;28;20126;-87
2022/06/06 17:01:18;;;;;;;14.65;4.20;;;;;;;28.33;68.69;100186.63;5000327;28;20061;-87
2022/06/06 17:04:09;;;;;;;20.10;4.80;;;;;;;28.28;68.25;100173.03;4999379;28;20117;-90
2022/06/06 17:09:33;;;;;;;15.52;4.47;;;;;;;28.24;68.81;100168.16;5014795;28;20026;-87
2022/06/06 17:12:26;;;;;;;21.15;4.68;;;;;;;28.15;69.65;100166.34;5018224;28;20069;-89
2022/06/06 17:15:23;;;;;;;24.48;4.97;;;;;;;28.17;69.59;100166.88;5009731;28;20127;-87
2022/06/06 17:17:51;;;;;;;19.58;4.43;;;;;;;28.32;68.58;100168.63;4997391;28;20404;-86
2022/06/06 17:20:32;;;;;;;15.05;4.30;;;;;;;28.21;69.34;100168.72;4997375;28;20031;-87
2022/06/06 17:23:03;;;;;;;18.63;4.32;;;;;;;28.26;69.00;100169.78;4990777;28;20115;-88
2022/06/06 17:25:32;;;;;;;23.17;4.85;;;;;;;28.10;70.40;100183.56;4995915;28;20038;-86
2022/06/06 17:28:27;;;;;;;21.52;3.92;;;;;;;27.99;71.00;100176.53;4998463;28;20042;-87
2022/06/06 17:31:20;;;;;;;20.98;4.82;;;;;;;28.15;69.71;100183.50;5002893;28;20030;-87
2022/06/06 17:33:54;;;;;;;16.42;4.90;;;;;;;28.14;70.24;100183.78;5014396;28;20034;-88
2022/06/06 17:36:23;;;;;;;17.60;4.75;;;;;;;28.10;69.51;100182.75;5000259;28;20033;-86
2022/06/06 17:38:50;;;;;;;19.52;4.80;;;;;;;27.88;71.37;100185.88;5001027;28;20038;-87
2022/06/06 17:41:22;;;;;;;14.02;4.40;;;;;;;27.96;71.18;100182.56;5014362;28;20038;-90
2022/06/06 17:43:58;;;;;;;23.90;4.97;;;;;;;27.89;71.23;100176.63;5015802;28;20038;-92
2022/06/06 17:46:52;;;;;;;14.95;4.40;;;;;;;28.18;68.92;100180.22;4997794;28;20464;-89
2022/06/06 17:49:38;;;;;;;23.30;6.47;;;;;;;28.17;69.68;100180.50;4994266;28;20188;-91
2022/06/06 17:52:18;;;;;;;19.27;5.68;;;;;;;28.21;69.63;100174.19;4995563;28;20039;-86
2022/06/06 17:54:52;;;;;;;19.60;5.88;;;;;;;28.15;69.69;100169.88;4998727;28;20064;-84
2022/06/06 17:57:42;;;;;;;19.85;4.97;;;;;;;28.06;69.98;100174.34;4998521;28;20571;-92
2022/06/06 18:00:22;;;;;;;16.27;4.60;;;;;;;27.99;70.91;100176.53;5007188;28;20034;-89
2022/06/06 18:03:10;;;;;;;24.75;5.35;;;;;;;28.08;71.88;100184.94;4997287;28;20034;-90
2022/06/06 18:06:02;;;;;;;21.40;5.78;;;;;;;28.11;72.64;100184.34;5004138;28;20109;-93
2022/06/06 18:08:47;;;;;;;22.20;6.20;;;;;;;28.12;72.76;100175.91;5013892;28;20049;-88
2022/06/06 18:11:36;;;;;;;23.45;5.13;;;;;;;28.18;72.15;100185.66;5001760;28;20034;-88
2022/06/06 18:14:09;;;;;;;15.60;4.75;;;;;;;28.19;73.02;100175.59;5019624;28;20053;-92
2022/06/06 18:17:05;;;;;;;21.27;4.70;;;;;;;28.03;73.77;100179.50;5012175;28;20060;-88
2022/06/06 18:19:38;;;;;;;19.40;5.70;;;;;;;27.83;75.25;100177.75;4942414;29;20138;-90
2022/06/06 18:22:14;;;;;;;18.05;5.13;;;;;;;27.64;78.09;100177.59;4944583;29;20043;-93
2022/06/06 18:24:47;;;;;;;14.02;5.07;;;;;;;27.62;78.42;100173.53;4907306;29;20044;-88
2022/06/06 18:27:15;;;;;;;27.77;5.80;;;;;;;27.53;79.08;100167.91;4940967;29;20039;-90
2022/06/06 18:29:52;;;;;;;22.92;5.10;;;;;;;27.36;80.95;100161.16;4934050;28;20047;-90
2022/06/06 18:32:26;;;;;;;20.20;5.18;;;;;;;27.24;82.30;100162.28;4984765;28;20038;-89
2022/06/06 18:35:16;;;;;;;22.27;5.10;;;;;;;27.21;83.02;100160.13;5019355;28;20037;-90
2022/06/06 18:37:46;;;;;;;20.25;5.40;;;;;;;27.17;83.84;100158.28;5007144;28;20044;-92
2022/06/06 18:40:17;;;;;;;22.45;4.63;;;;;;;27.20;82.71;100158.53;5000765;28;20033;-90
2022/06/06 18:42:45;;;;;;;22.95;5.25;;;;;;;27.10;83.26;100158.59;4983397;28;20030;-91
2022/06/06 18:45:44;;;;;;;24.20;6.45;;;;;;;27.11;83.40;100154.75;5008078;28;20029;-93
2022/06/06 18:48:16;;;;;;;23.95;5.80;;;;;;;26.98;85.67;100163.50;5002979;28;20237;-91
2022/06/06 18:50:59;;;;;;;25.80;5.93;;;;;;;27.08;84.31;100159.94;5012020;28;20047;-90
2022/06/06 18:53:56;;;;;;;25.15;6.07;;;;;;;27.02;86.85;100161.88;5013263;28;20045;-89
2022/06/06 18:56:49;;;;;;;18.73;6.35;;;;;;;27.12;85.79;100155.56;4996849;28;20127;-85
2022/06/06 18:59:24;;;;;;;19.70;6.85;;;;;;;27.12;85.40;100148.22;5013582;28;20038;-89
2022/06/06 19:01:56;;;;;;;24.73;6.53;;;;;;;26.93;88.51;100151.84;5019084;28;20061;-87
2022/06/06 19:04:27;;;;;;;20.05;7.80;;;;;;;26.81;91.76;100154.91;5013626;28;20038;-88
2022/06/06 19:07:03;;;;;;;27.52;7.88;;;;;;;26.61;94.14;100154.94;5013898;28;20048;-85
2022/06/06 19:09:35;;;;;;;22.73;7.28;;;;;;;26.59;94.29;100147.03;5005281;28;20041;-86
2022/06/06 19:12:23;;;;;;;34.60;9.25;;;;;;;26.51;95.61;100144.09;5014762;28;20097;-86
2022/06/06 19:15:29;;;;;;;30.27;7.65;;;;;;;26.36;97.09;100144.94;5012515;28;20065;-86
2022/06/06 19:18:01;;;;;;;31.85;7.75;;;;;;;26.20;99.13;100148.75;5002062;28;20132;-86
2022/06/06 19:21:01;;;;;;;26.77;7.82;;;;;;;26.12;100.00;100146.56;5001373;28;20042;-84
2022/06/06 19:24:09;;;;;;;31.48;6.90;;;;;;;26.08;100.00;100151.72;4991843;28;20050;-87
2022/06/06 19:26:34;;;;;;;26.77;7.03;;;;;;;26.06;99.98;100148.47;5000119;28;20637;-88
2022/06/06 19:29:25;;;;;;;34.55;8.27;;;;;;;26.02;100.00;100147.38;5016821;28;20030;-85
2022/06/06 19:32:06;;;;;;;24.95;8.10;;;;;;;25.96;100.00;100145.75;5020844;28;20037;-88
2022/06/06 19:34:38;;;;;;;21.77;6.75;;;;;;;25.95;100.00;100152.25;5018715;28;20053;-88
2022/06/06 19:37:19;;;;;;;22.92;7.90;;;;;;;26.00;99.81;100149.56;5012256;28;20038;-90
2022/06/06 19:40:19;;;;;;;24.90;7.05;;;;;;;25.96;100.00;100162.06;5000533;28;20039;-87
2022/06/06 19:42:56;;;;;;;29.45;7.03;;;;;;;25.95;100.00;100165.84;5007137;28;20030;-86
2022/06/06 19:45:34;;;;;;;23.00;6.82;;;;;;;25.89;99.31;100169.66;5012813;28;20458;-88
2022/06/06 19:48:10;;;;;;;30.85;7.22;;;;;;;25.89;99.27;100164.22;5012965;28;20045;-86
2022/06/06 19:50:41;;;;;;;26.38;7.07;;;;;;;25.85;98.59;100173.19;4996213;28;20058;-87
2022/06/06 19:53:28;;;;;;;23.20;5.82;;;;;;;25.79;95.94;100175.06;4998832;28;20038;-88
2022/06/06 19:56:22;;;;;;;17.55;6.20;;;;;;;25.79;95.31;100180.50;5008547;28;20147;-87
2022/06/06 19:58:50;;;;;;;16.73;6.63;;;;;;;25.85;94.65;100182.16;5001643;28;20121;-89
2022/06/06 20:01:20;;;;;;;23.90;6.22;;;;;;;25.80;94.62;100181.31;5004451;28;20030;-89
2022/06/06 20:04:14;;;;;;;30.27;6.22;;;;;;;25.72;94.47;100174.53;5007298;28;20053;-87
2022/06/06 20:07:29;;;;;;;18.83;5.47;;;;;;;25.63;94.56;100174.25;5020049;28;20042;-88
2022/06/06 20:10:21;;;;;;;17.02;6.15;;;;;;;25.62;93.82;100174.53;4927417;29;20071;-91
2022/06/06 20:12:55;;;;;;;21.95;6.50;;;;;;;25.66;93.06;100165.56;4925878;29;20043;-89
2022/06/06 20:15:28;;;;;;;21.15;5.93;;;;;;;25.52;93.26;100169.09;4912961;29;20111;-89
2022/06/06 20:18:01;;;;;;;21.92;5.90;;;;;;;25.45;94.86;100169.31;4906597;29;20103;-86
2022/06/06 20:20:31;;;;;;;12.23;5.60;;;;;;;25.35;94.78;100169.28;4969586;28;20057;-87
2022/06/06 20:22:58;;;;;;;27.58;6.28;;;;;;;25.29;93.41;100159.47;5001403;28;20031;-90